Time;durP1;ratioP1;P1;durP2;ratioP2;P2;SDS_P1;SDS_P2;PMS_P1;PMS_P2;Temp;Humidity;BMP_temperature;BMP_pressure;BME280_temperature;BME280_humidity;BME280_pressure;Samples;Min_cycle;Max_cycle;Signal;HPM_P1;HPM_P2
2023/04/23 00:01:46;;;;;;;15.05;7.47;;;;;;;11.18;68.62;100129.84;4917304;29;20062;-72
2023/04/23 00:04:15;;;;;;;10.77;7.80;;;;;;;11.11;69.82;100119.00;4917349;29;20047;-74
2023/04/23 00:06:42;;;;;;;21.90;7.68;;;;;;;11.23;70.13;100119.41;4916085;29;20059;-74
2023/04/23 00:09:10;;;;;;;14.82;7.82;;;;;;;11.14;71.40;100115.13;4917166;29;20051;-73
2023/04/23 00:11:37;;;;;;;12.60;7.38;;;;;;;11.03;72.72;100108.28;4915929;29;20052;-74
2023/04/23 00:14:04;;;;;;;15.65;7.57;;;;;;;10.99;73.37;100112.34;4912791;29;20084;-73
2023/04/23 00:16:31;;;;;;;17.85;8.13;;;;;;;11.00;73.88;100108.66;4914081;29;20052;-72
2023/04/23 00:18:58;;;;;;;14.68;7.90;;;;;;;10.88;76.02;100100.16;4913840;29;20059;-72
2023/04/23 00:21:24;;;;;;;18.20;8.38;;;;;;;10.87;76.87;100100.38;4896745;29;20055;-72
2023/04/23 00:23:50;;;;;;;15.45;7.32;;;;;;;10.90;77.55;100100.84;4904479;29;20436;-72
2023/04/23 00:26:17;;;;;;;10.77;7.38;;;;;;;10.83;78.06;100091.84;4913226;29;20402;-72
2023/04/23 00:28:44;;;;;;;13.35;7.65;;;;;;;10.79;79.75;100097.72;4914177;29;20123;-72
2023/04/23 00:31:10;;;;;;;12.60;7.40;;;;;;;10.90;78.92;100094.66;4914611;29;20170;-72
2023/04/23 00:33:37;;;;;;;13.80;6.95;;;;;;;10.78;80.49;100093.38;4897850;29;20445;-72
2023/04/23 00:36:05;;;;;;;17.08;7.70;;;;;;;10.79;80.82;100087.84;4914135;29;20532;-73
2023/04/23 00:38:32;;;;;;;22.75;7.43;;;;;;;10.81;80.93;100087.66;4914005;29;20620;-72
2023/04/23 00:40:58;;;;;;;16.05;8.18;;;;;;;10.85;80.67;100083.59;4913412;29;20425;-74
2023/04/23 00:43:25;;;;;;;17.15;7.65;;;;;;;10.86;81.18;100083.44;4896437;29;20079;-73
2023/04/23 00:45:51;;;;;;;14.02;7.80;;;;;;;10.91;81.29;100086.41;4914031;29;20051;-71
2023/04/23 00:48:18;;;;;;;14.68;7.80;;;;;;;10.87;81.47;100078.91;4913924;29;20044;-73
2023/04/23 00:50:45;;;;;;;12.32;7.47;;;;;;;10.79;83.22;100085.16;4913657;29;20054;-72
2023/04/23 00:53:12;;;;;;;18.20;7.82;;;;;;;10.76;83.25;100085.50;4914883;29;20054;-72
2023/04/23 00:55:39;;;;;;;17.80;8.13;;;;;;;10.73;83.59;100081.31;4904041;29;20056;-73
2023/04/23 00:58:06;;;;;;;21.73;9.23;;;;;;;10.80;83.59;100076.09;4913300;29;20044;-72
2023/04/23 01:00:40;;;;;;;15.23;8.52;;;;;;;10.85;83.39;100078.22;4913960;29;20055;-71
2023/04/23 01:03:07;;;;;;;18.52;7.75;;;;;;;10.81;84.06;100072.38;4913437;29;20048;-72
2023/04/23 01:09:16;;;;;;;14.23;7.80;;;;;;;10.71;86.81;100071.78;4913152;29;20055;-72
2023/04/23 01:11:43;;;;;;;12.73;7.60;;;;;;;10.60;87.93;100067.66;4913172;29;20059;-71
2023/04/23 01:14:10;;;;;;;13.55;8.00;;;;;;;10.79;86.96;100070.88;4913332;29;20051;-72
2023/04/23 01:16:41;;;;;;;15.07;7.90;;;;;;;10.72;89.06;100073.44;4913972;29;20557;-72
2023/04/23 01:19:11;;;;;;;16.42;8.32;;;;;;;10.62;91.77;100067.50;4913546;29;20048;-73
2023/04/23 01:21:41;;;;;;;12.60;7.97;;;;;;;10.70;92.64;100070.13;4914317;29;20139;-72
2023/04/23 01:24:09;;;;;;;12.90;8.02;;;;;;;10.87;91.11;100076.22;4913497;29;20107;-72
2023/04/23 01:26:35;;;;;;;14.25;8.63;;;;;;;10.68;93.82;100072.94;4917252;29;20060;-72
2023/04/23 01:29:02;;;;;;;14.00;8.18;;;;;;;10.82;93.21;100073.22;4916282;29;20052;-73
2023/04/23 01:31:29;;;;;;;19.27;8.65;;;;;;;10.82;93.89;100081.25;4916669;29;20076;-72
2023/04/23 01:33:57;;;;;;;20.33;8.73;;;;;;;10.87;93.75;100071.69;4916751;29;20398;-72
2023/04/23 01:36:24;;;;;;;12.45;8.45;;;;;;;10.88;94.27;100076.03;4917319;29;20148;-72
2023/04/23 01:38:51;;;;;;;18.98;8.00;;;;;;;10.93;95.96;100070.13;4918008;29;20056;-71
2023/04/23 01:41:18;;;;;;;22.10;9.32;;;;;;;10.86;98.65;100075.38;4917246;29;20070;-72
2023/04/23 01:43:45;;;;;;;19.25;8.55;;;;;;;10.90;100.00;100075.84;4917387;29;20048;-74
2023/04/23 01:46:12;;;;;;;14.70;8.20;;;;;;;10.88;100.00;100067.13;4918179;29;20135;-72
2023/04/23 01:48:38;;;;;;;17.88;8.90;;;;;;;10.88;100.00;100067.13;4917535;29;20408;-71
2023/04/23 01:51:05;;;;;;;17.65;8.48;;;;;;;10.76;100.00;100068.59;4917361;29;20055;-73
2023/04/23 01:53:31;;;;;;;19.20;9.00;;;;;;;10.83;100.00;100067.69;4916917;29;20052;-72
2023/04/23 01:56:00;;;;;;;15.63;8.35;;;;;;;10.86;100.00;100061.97;4916713;29;20117;-72
2023/04/23 01:58:26;;;;;;;17.02;8.70;;;;;;;10.83;100.00;100062.31;4917109;29;20139;-72
2023/04/23 02:00:53;;;;;;;18.45;9.13;;;;;;;10.77;100.00;100060.34;4916897;29;20497;-72
2023/04/23 02:03:19;;;;;;;12.63;8.65;;;;;;;10.59;100.00;100057.09;4918107;29;20048;-72
2023/04/23 02:05:47;;;;;;;13.88;8.73;;;;;;;10.36;100.00;100057.03;4918043;29;20056;-73
2023/04/23 02:08:13;;;;;;;19.88;9.82;;;;;;;10.26;100.00;100057.22;4901264;29;20052;-73
2023/04/23 02:10:40;;;;;;;16.17;9.32;;;;;;;10.27;100.00;100058.91;4915837;29;20052;-74
2023/04/23 02:13:06;;;;;;;12.38;9.60;;;;;;;10.32;100.00;100048.50;4906356;29;20056;-73
2023/04/23 02:15:33;;;;;;;19.20;9.00;;;;;;;10.35;100.00;100044.63;4915977;29;20048;-73
2023/04/23 02:17:59;;;;;;;17.88;9.52;;;;;;;10.47;100.00;100052.09;4915845;29;20054;-72
2023/04/23 02:20:26;;;;;;;19.60;10.50;;;;;;;10.45;100.00;100051.44;4915858;29;20127;-72
2023/04/23 02:22:53;;;;;;;13.40;9.50;;;;;;;10.50;100.00;100053.63;4915562;29;20044;-73
2023/04/23 02:25:20;;;;;;;20.17;10.18;;;;;;;10.34;100.00;100057.22;4915677;29;20048;-73
2023/04/23 02:27:47;;;;;;;15.13;9.75;;;;;;;10.42;100.00;100057.16;4916280;29;20052;-73
2023/04/23 02:30:14;;;;;;;17.30;9.55;;;;;;;10.35;100.00;100061.56;4915860;29;20044;-73
2023/04/23 02:32:41;;;;;;;19.73;10.95;;;;;;;10.46;100.00;100057.63;4914767;29;20401;-75
2023/04/23 02:35:09;;;;;;;17.48;9.95;;;;;;;10.36;100.00;100063.22;4915000;29;20040;-74
2023/04/23 02:37:36;;;;;;;16.35;9.48;;;;;;;10.39;100.00;100057.50;4913024;29;20466;-75
2023/04/23 02:40:06;;;;;;;17.77;9.77;;;;;;;10.41;100.00;100055.50;4914685;29;20044;-74
2023/04/23 02:42:33;;;;;;;15.77;9.73;;;;;;;10.43;100.00;100058.81;4915852;29;20044;-74
2023/04/23 02:45:00;;;;;;;19.98;9.18;;;;;;;10.53;100.00;100055.13;4914870;29;20099;-74
2023/04/23 02:47:27;;;;;;;18.70;9.40;;;;;;;10.53;100.00;100065.84;4915272;29;20062;-73
2023/04/23 02:49:53;;;;;;;18.75;9.70;;;;;;;10.50;100.00;100057.13;4915637;29;20509;-73
2023/04/23 02:52:20;;;;;;;13.95;9.45;;;;;;;10.52;100.00;100056.16;4916476;29;20137;-74
2023/04/23 02:54:47;;;;;;;18.95;9.85;;;;;;;10.54;100.00;100046.06;4915522;29;20048;-74
2023/04/23 02:57:15;;;;;;;15.23;9.93;;;;;;;10.59;100.00;100043.69;4904759;29;20511;-74
2023/04/23 02:59:42;;;;;;;15.55;9.20;;;;;;;10.54;100.00;100048.75;4914525;29;20052;-74
2023/04/23 03:02:08;;;;;;;18.45;9.80;;;;;;;10.54;100.00;100046.88;4915238;29;20122;-73
2023/04/23 03:04:35;;;;;;;16.92;10.00;;;;;;;10.69;100.00;100041.63;4914542;29;20151;-74
2023/04/23 03:07:02;;;;;;;15.43;9.55;;;;;;;10.66;100.00;100041.97;4915065;29;20071;-74
2023/04/23 03:09:28;;;;;;;20.48;9.60;;;;;;;10.63;100.00;100042.31;4914240;29;20048;-72
2023/04/23 03:11:56;;;;;;;17.27;10.23;;;;;;;10.52;100.00;100040.06;4915113;29;20046;-73
2023/04/23 03:14:22;;;;;;;16.80;9.43;;;;;;;10.47;100.00;100044.03;4914503;29;20055;-73
2023/04/23 03:16:49;;;;;;;14.50;8.98;;;;;;;10.45;100.00;100035.34;4915328;29;20044;-74
2023/04/23 03:19:16;;;;;;;19.60;9.38;;;;;;;10.40;100.00;100037.72;4914295;29;20493;-72
2023/04/23 03:21:42;;;;;;;14.35;9.13;;;;;;;10.43;100.00;100047.25;4897937;29;20577;-73
2023/04/23 03:24:12;;;;;;;14.77;9.88;;;;;;;10.42;100.00;100042.91;4914288;29;20417;-73
2023/04/23 03:26:38;;;;;;;15.93;9.00;;;;;;;10.33;100.00;100036.75;4914160;29;20052;-72
2023/04/23 03:29:05;;;;;;;13.77;8.90;;;;;;;10.33;100.00;100026.03;4914698;29;20052;-74
2023/04/23 03:31:32;;;;;;;13.63;9.20;;;;;;;10.31;100.00;100032.59;4913846;29;20131;-74
2023/04/23 03:33:58;;;;;;;16.27;9.10;;;;;;;10.33;100.00;100031.38;4914237;29;20048;-74
2023/04/23 03:36:25;;;;;;;18.73;8.73;;;;;;;10.26;100.00;100035.78;4913983;29;20131;-75
2023/04/23 03:38:51;;;;;;;16.08;9.30;;;;;;;10.25;100.00;100034.13;4915133;29;20052;-73
2023/04/23 03:41:18;;;;;;;13.43;8.90;;;;;;;10.28;100.00;100033.78;4914196;29;20044;-73
2023/04/23 03:43:45;;;;;;;13.65;8.60;;;;;;;10.18;100.00;100027.78;4914507;29;20127;-73
2023/04/23 03:46:11;;;;;;;17.08;9.45;;;;;;;10.13;100.00;100030.13;4914285;29;20051;-73
2023/04/23 03:48:38;;;;;;;18.63;9.93;;;;;;;10.09;100.00;100039.53;4912798;29;20417;-72
2023/04/23 03:51:04;;;;;;;15.82;10.38;;;;;;;10.22;100.00;100021.06;4913801;29;20054;-73
2023/04/23 03:53:31;;;;;;;19.77;9.90;;;;;;;10.23;100.00;100023.56;4913512;29;20580;-73
2023/04/23 03:55:57;;;;;;;17.35;10.07;;;;;;;10.32;100.00;100019.00;4905127;29;20056;-74
2023/04/23 03:58:26;;;;;;;13.13;9.57;;;;;;;10.24;100.00;100021.72;4910989;29;20044;-74
2023/04/23 04:00:53;;;;;;;11.18;9.30;;;;;;;10.38;100.00;100020.16;4913391;29;20519;-73
2023/04/23 04:03:20;;;;;;;15.48;9.98;;;;;;;10.36;100.00;100009.59;4914225;29;20106;-72
2023/04/23 04:05:47;;;;;;;19.60;9.38;;;;;;;10.38;100.00;100018.31;4913736;29;20052;-73
2023/04/23 04:08:13;;;;;;;16.05;10.25;;;;;;;10.37;100.00;100021.97;4914524;29;20047;-73
2023/04/23 04:10:40;;;;;;;15.48;10.15;;;;;;;10.43;100.00;100015.09;4914052;29;20070;-73
2023/04/23 04:13:07;;;;;;;17.25;9.95;;;;;;;10.30;100.00;100012.97;4913811;29;20147;-74
2023/04/23 04:15:33;;;;;;;14.23;9.93;;;;;;;10.43;100.00;100015.91;4908472;29;20055;-74
2023/04/23 04:18:00;;;;;;;15.88;9.85;;;;;;;10.25;100.00;100023.41;4913565;29;20044;-74
2023/04/23 04:20:29;;;;;;;14.00;8.98;;;;;;;10.31;100.00;100022.69;4913384;29;20116;-74
2023/04/23 04:22:56;;;;;;;14.52;8.68;;;;;;;10.28;100.00;100020.38;4914159;29;20555;-74
2023/04/23 04:25:23;;;;;;;13.05;8.57;;;;;;;10.40;100.00;100021.63;4913713;29;20048;-74
2023/04/23 04:27:49;;;;;;;12.07;8.10;;;;;;;10.48;100.00;100008.19;4914148;29;20437;-73
2023/04/23 04:30:16;;;;;;;15.45;8.15;;;;;;;10.50;100.00;100011.53;4913197;29;20070;-74
2023/04/23 04:32:44;;;;;;;12.80;8.27;;;;;;;10.48;100.00;100020.75;4912397;29;20056;-74
2023/04/23 04:35:14;;;;;;;16.38;8.82;;;;;;;10.38;100.00;100022.84;4913167;29;20079;-74
2023/04/23 04:37:42;;;;;;;12.98;9.02;;;;;;;10.50;100.00;100032.16;4913040;29;20056;-73
2023/04/23 04:40:10;;;;;;;16.80;8.95;;;;;;;10.40;100.00;100028.84;4913779;29;20052;-73
2023/04/23 04:42:37;;;;;;;14.20;9.35;;;;;;;10.39;100.00;100029.84;4904008;29;20147;-74
2023/04/23 04:45:04;;;;;;;16.10;8.95;;;;;;;10.34;100.00;100038.44;4912861;29;20469;-74
2023/04/23 04:47:31;;;;;;;13.57;8.32;;;;;;;10.35;100.00;100041.94;4915144;29;20075;-74
2023/04/23 04:49:59;;;;;;;14.18;8.82;;;;;;;10.28;100.00;100041.81;4915218;29;20054;-74
2023/04/23 04:52:26;;;;;;;15.50;8.60;;;;;;;10.29;100.00;100024.72;4915585;29;20044;-74
2023/04/23 04:54:52;;;;;;;10.05;8.00;;;;;;;10.48;100.00;100035.00;4916164;29;20048;-73
2023/04/23 04:57:21;;;;;;;17.95;8.45;;;;;;;10.37;100.00;100038.06;4915650;29;20064;-73
2023/04/23 04:59:49;;;;;;;13.73;8.82;;;;;;;10.26;100.00;100033.09;4916041;29;20063;-72
2023/04/23 05:02:15;;;;;;;12.40;8.43;;;;;;;10.47;100.00;100027.94;4917743;29;20507;-72
2023/04/23 05:04:42;;;;;;;10.65;7.80;;;;;;;10.48;100.00;100037.69;4917395;29;20048;-73
2023/04/23 05:07:09;;;;;;;14.68;7.97;;;;;;;10.50;100.00;100048.25;4919172;29;20417;-72
2023/04/23 05:09:36;;;;;;;12.88;8.30;;;;;;;10.55;100.00;100039.66;4918623;29;20139;-72
2023/04/23 05:12:06;;;;;;;12.15;8.73;;;;;;;10.57;100.00;100043.84;4918951;29;20048;-74
2023/04/23 05:14:32;;;;;;;21.15;9.52;;;;;;;10.64;100.00;100052.03;4917805;29;20063;-73
2023/04/23 05:16:59;;;;;;;17.88;8.85;;;;;;;10.68;100.00;100050.66;4918751;29;20043;-72
2023/04/23 05:19:26;;;;;;;15.48;8.50;;;;;;;10.50;100.00;100046.41;4919404;29;20044;-74
2023/04/23 05:21:52;;;;;;;19.52;9.38;;;;;;;10.49;100.00;100046.56;4900555;29;20138;-72
2023/04/23 05:24:19;;;;;;;11.13;7.97;;;;;;;10.44;100.00;100049.78;4917367;29;20074;-73
2023/04/23 05:26:46;;;;;;;12.20;8.52;;;;;;;10.42;100.00;100049.13;4908881;29;20417;-73
2023/04/23 05:29:16;;;;;;;14.45;8.27;;;;;;;10.57;100.00;100053.75;4917000;29;20059;-73
2023/04/23 05:31:43;;;;;;;16.20;9.43;;;;;;;10.51;100.00;100047.25;4917655;29;20071;-73
2023/04/23 05:34:09;;;;;;;15.10;8.27;;;;;;;10.38;100.00;100055.84;4917366;29;20052;-72
2023/04/23 05:36:36;;;;;;;15.18;8.68;;;;;;;10.36;100.00;100052.47;4918184;29;20123;-74
2023/04/23 05:39:02;;;;;;;12.77;9.38;;;;;;;10.37;100.00;100048.78;4918505;29;20051;-73
2023/04/23 05:41:29;;;;;;;16.33;9.10;;;;;;;10.39;100.00;100052.13;4918465;29;20052;-72
2023/04/23 05:43:55;;;;;;;13.30;8.82;;;;;;;10.38;100.00;100052.31;4919913;29;20066;-72
2023/04/23 05:46:22;;;;;;;18.35;9.35;;;;;;;10.37;100.00;100056.81;4912845;29;20051;-74
2023/04/23 05:48:48;;;;;;;15.07;8.98;;;;;;;10.60;100.00;100058.78;4916283;29;20069;-72
2023/04/23 05:51:16;;;;;;;18.83;8.95;;;;;;;10.59;100.00;100055.25;4916353;29;20044;-73
2023/04/23 05:53:42;;;;;;;14.45;8.65;;;;;;;10.73;100.00;100051.81;4917000;29;20051;-72
2023/04/23 05:56:09;;;;;;;14.85;8.50;;;;;;;10.80;100.00;100056.47;4916305;29;20056;-73
2023/04/23 05:58:37;;;;;;;14.07;8.30;;;;;;;10.76;100.00;100061.34;4916175;29;20410;-73
2023/04/23 06:01:04;;;;;;;13.38;8.05;;;;;;;10.74;100.00;100063.38;4915711;29;20058;-73
2023/04/23 06:03:31;;;;;;;13.15;8.45;;;;;;;10.77;100.00;100065.72;4916141;29;20055;-73
2023/04/23 06:05:58;;;;;;;35.92;12.75;;;;;;;10.72;100.00;100062.69;4917276;29;20052;-72
2023/04/23 06:08:24;;;;;;;12.43;7.57;;;;;;;10.94;100.00;100061.91;4917373;29;20048;-74
2023/04/23 06:10:51;;;;;;;15.50;7.57;;;;;;;10.90;100.00;100060.59;4915956;29;20044;-72
2023/04/23 06:13:17;;;;;;;14.48;8.20;;;;;;;10.92;100.00;100061.22;4922034;29;20044;-72
2023/04/23 06:15:44;;;;;;;14.73;7.88;;;;;;;10.84;100.00;100066.66;4915182;29;20432;-72
2023/04/23 06:18:10;;;;;;;15.77;7.97;;;;;;;11.03;100.00;100068.03;4918608;29;20099;-71
2023/04/23 06:20:37;;;;;;;11.35;7.57;;;;;;;11.11;100.00;100061.78;4920950;29;20072;-71
2023/04/23 06:23:05;;;;;;;14.75;7.82;;;;;;;11.01;100.00;100062.03;4916873;29;20135;-71
2023/04/23 06:25:31;;;;;;;11.75;7.63;;;;;;;11.06;100.00;100064.97;4918257;29;20048;-73
2023/04/23 06:27:58;;;;;;;13.18;7.95;;;;;;;10.99;100.00;100056.81;4918246;29;20131;-72
2023/04/23 06:30:24;;;;;;;12.90;8.00;;;;;;;10.87;100.00;100074.38;4916073;29;20044;-71
2023/04/23 06:32:51;;;;;;;12.30;8.02;;;;;;;10.94;100.00;100064.59;4919311;29;20058;-71
2023/04/23 06:35:18;;;;;;;11.70;6.85;;;;;;;11.01;100.00;100072.75;4917219;29;20505;-71
2023/04/23 06:37:44;;;;;;;12.90;7.88;;;;;;;10.84;100.00;100076.56;4923444;29;20160;-73
2023/04/23 06:40:11;;;;;;;12.57;7.35;;;;;;;10.91;100.00;100072.16;4925842;29;20044;-71
2023/04/23 06:42:38;;;;;;;16.13;8.10;;;;;;;11.09;100.00;100074.53;4923265;29;20048;-72
2023/04/23 06:45:05;;;;;;;12.93;7.55;;;;;;;10.91;100.00;100073.00;4925549;29;20115;-72
2023/04/23 06:47:32;;;;;;;12.95;7.97;;;;;;;10.99;100.00;100072.91;4926595;29;20127;-72
2023/04/23 06:49:59;;;;;;;16.38;7.65;;;;;;;10.93;100.00;100060.25;4923948;29;20058;-72
2023/04/23 06:52:26;;;;;;;11.50;7.03;;;;;;;10.79;100.00;100074.44;4925205;29;20051;-72
2023/04/23 06:54:52;;;;;;;9.10;6.45;;;;;;;10.97;100.00;100077.66;4913577;29;20524;-71
2023/04/23 06:57:19;;;;;;;12.18;8.00;;;;;;;10.84;100.00;100072.03;4921593;29;20157;-72
2023/04/23 06:59:45;;;;;;;15.40;8.00;;;;;;;10.78;100.00;100083.47;4923724;29;20139;-71
2023/04/23 07:02:12;;;;;;;10.05;7.30;;;;;;;10.63;100.00;100079.88;4924159;29;20054;-71
2023/04/23 07:04:38;;;;;;;11.65;7.60;;;;;;;10.49;100.00;100074.22;4925467;29;20123;-71
2023/04/23 07:07:05;;;;;;;12.60;6.90;;;;;;;10.56;100.00;100074.38;4923435;29;20059;-71
2023/04/23 07:09:32;;;;;;;10.52;7.15;;;;;;;10.59;100.00;100075.88;4920419;29;20075;-72
2023/04/23 07:11:58;;;;;;;14.95;8.70;;;;;;;10.43;100.00;100085.63;4920462;29;20048;-71
2023/04/23 07:14:25;;;;;;;15.20;7.88;;;;;;;10.46;100.00;100077.25;4918996;29;20506;-71
2023/04/23 07:16:51;;;;;;;10.75;7.45;;;;;;;10.43;100.00;100071.41;4915838;29;20064;-71
2023/04/23 07:19:18;;;;;;;16.33;8.18;;;;;;;10.27;100.00;100073.16;4914831;29;20052;-72
2023/04/23 07:21:44;;;;;;;12.88;8.75;;;;;;;10.24;100.00;100070.81;4906137;29;20080;-72
2023/04/23 07:24:11;;;;;;;10.90;7.95;;;;;;;10.20;100.00;100074.00;4913119;29;20044;-72
2023/04/23 07:26:37;;;;;;;10.43;7.43;;;;;;;10.29;100.00;100072.97;4914581;29;20048;-73
2023/04/23 07:29:06;;;;;;;12.02;7.40;;;;;;;10.22;100.00;100072.00;4913672;29;20052;-74
2023/04/23 07:31:33;;;;;;;14.85;7.25;;;;;;;10.20;100.00;100074.00;4914678;29;20044;-74
2023/04/23 07:34:00;;;;;;;11.23;8.55;;;;;;;10.28;100.00;100082.03;4914051;29;20103;-74
2023/04/23 07:36:26;;;;;;;11.65;8.00;;;;;;;10.19;100.00;100077.69;4913821;29;20418;-74
2023/04/23 07:38:53;;;;;;;14.32;8.18;;;;;;;10.37;100.00;100080.97;4914150;29;20056;-74
2023/04/23 07:41:20;;;;;;;11.80;8.88;;;;;;;10.35;100.00;100080.31;4914096;29;20417;-74
2023/04/23 07:43:46;;;;;;;13.13;9.23;;;;;;;10.43;100.00;100077.59;4913646;29;20055;-74
2023/04/23 07:46:13;;;;;;;15.10;9.85;;;;;;;10.45;100.00;100089.00;4914224;29;20048;-74
2023/04/23 07:48:40;;;;;;;14.95;9.80;;;;;;;10.36;100.00;100079.31;4913536;29;20112;-74
2023/04/23 07:51:07;;;;;;;16.73;9.50;;;;;;;10.43;100.00;100085.63;4913230;29;20048;-75
2023/04/23 07:53:34;;;;;;;14.77;10.25;;;;;;;10.42;100.00;100073.25;4913959;29;20051;-75
2023/04/23 07:56:01;;;;;;;14.05;9.32;;;;;;;10.39;100.00;100083.47;4914598;29;20075;-75
2023/04/23 07:58:27;;;;;;;17.30;10.23;;;;;;;10.40;100.00;100085.16;4913319;29;20055;-74
2023/04/23 08:00:54;;;;;;;14.55;10.48;;;;;;;10.46;100.00;100090.66;4913579;29;20064;-74
2023/04/23 08:03:21;;;;;;;16.67;10.50;;;;;;;10.55;100.00;100082.59;4913732;29;20052;-74
2023/04/23 08:05:48;;;;;;;16.65;11.07;;;;;;;10.41;100.00;100094.84;4914304;29;20130;-74
2023/04/23 08:08:14;;;;;;;14.90;10.15;;;;;;;10.47;100.00;100081.59;4913931;29;20480;-75
2023/04/23 08:10:41;;;;;;;13.43;9.45;;;;;;;10.53;100.00;100079.25;4914215;29;20052;-75
2023/04/23 08:13:07;;;;;;;13.95;9.18;;;;;;;10.68;100.00;100070.28;4914332;29;20071;-75
2023/04/23 08:15:34;;;;;;;16.52;9.70;;;;;;;10.74;100.00;100076.78;4914022;29;20048;-74
2023/04/23 08:18:02;;;;;;;14.02;9.13;;;;;;;10.66;100.00;100074.16;4913568;29;20383;-75
2023/04/23 08:20:30;;;;;;;17.10;9.52;;;;;;;10.76;100.00;100084.69;4914016;29;20375;-74
2023/04/23 08:22:57;;;;;;;15.60;9.20;;;;;;;10.71;100.00;100082.50;4913529;29;20637;-74
2023/04/23 08:25:24;;;;;;;15.88;9.30;;;;;;;10.94;100.00;100080.69;4913150;29;20047;-74
2023/04/23 08:27:51;;;;;;;13.27;9.25;;;;;;;10.93;100.00;100079.03;4912678;29;20063;-74
2023/04/23 08:30:17;;;;;;;11.57;7.93;;;;;;;10.95;100.00;100095.75;4912503;29;20136;-74
2023/04/23 08:32:48;;;;;;;12.82;9.00;;;;;;;11.06;100.00;100091.00;4912715;29;20139;-74
2023/04/23 08:35:15;;;;;;;17.53;8.93;;;;;;;11.35;100.00;100091.13;4911999;29;20048;-74
2023/04/23 08:37:41;;;;;;;15.07;8.68;;;;;;;11.47;100.00;100088.81;4912535;29;20056;-74
2023/04/23 08:40:08;;;;;;;11.02;8.63;;;;;;;11.27;100.00;100084.97;4895924;29;20056;-74
2023/04/23 08:42:37;;;;;;;14.23;8.40;;;;;;;11.45;100.00;100091.72;4912210;29;20131;-74
2023/04/23 08:45:04;;;;;;;13.02;7.90;;;;;;;11.46;100.00;100088.00;4914246;29;20048;-74
2023/04/23 08:47:31;;;;;;;13.18;9.48;;;;;;;11.52;100.00;100085.59;4913702;29;20048;-74
2023/04/23 08:49:58;;;;;;;20.42;9.35;;;;;;;11.69;100.00;100098.72;4913213;29;20071;-73
2023/04/23 08:52:28;;;;;;;10.82;7.75;;;;;;;11.48;100.00;100092.34;4912811;29;20072;-72
2023/04/23 08:55:00;;;;;;;16.60;8.43;;;;;;;11.35;100.00;100091.13;4913763;29;23016;-73
2023/04/23 08:57:26;;;;;;;13.93;8.48;;;;;;;11.44;100.00;100095.38;4912997;29;20048;-72
2023/04/23 08:59:54;;;;;;;15.70;8.38;;;;;;;11.18;100.00;100101.16;4904844;29;20048;-73
2023/04/23 09:02:21;;;;;;;11.25;8.35;;;;;;;11.35;100.00;100106.41;4912131;29;20052;-74
2023/04/23 09:04:48;;;;;;;11.27;8.32;;;;;;;11.06;100.00;100101.72;4912151;29;20103;-73
2023/04/23 09:07:17;;;;;;;14.27;8.13;;;;;;;11.13;100.00;100108.88;4911383;29;20078;-73
2023/04/23 09:09:44;;;;;;;13.55;8.73;;;;;;;11.13;100.00;100108.06;4912111;29;20651;-72
2023/04/23 09:12:11;;;;;;;18.60;9.18;;;;;;;10.93;100.00;100100.50;4912227;29;20062;-74
2023/04/23 09:14:37;;;;;;;15.63;8.63;;;;;;;10.99;100.00;100107.81;4912408;29;20054;-73
2023/04/23 09:17:04;;;;;;;12.52;8.43;;;;;;;10.85;100.00;100111.25;4913983;29;20048;-73
2023/04/23 09:19:31;;;;;;;10.90;7.93;;;;;;;10.90;100.00;100113.44;4913360;29;20429;-73
2023/04/23 09:21:59;;;;;;;12.50;7.68;;;;;;;10.73;100.00;100118.06;4912768;29;20135;-73
2023/04/23 09:24:26;;;;;;;10.07;7.07;;;;;;;10.65;100.00;100126.13;4912717;29;20071;-73
2023/04/23 09:26:53;;;;;;;9.07;7.35;;;;;;;10.61;100.00;100122.94;4912267;29;20424;-72
2023/04/23 09:29:22;;;;;;;11.10;6.97;;;;;;;10.59;100.00;100132.22;4912378;29;20485;-73
2023/04/23 09:31:51;;;;;;;9.80;5.72;;;;;;;10.37;100.00;100133.75;4913225;29;20427;-73
2023/04/23 09:34:18;;;;;;;7.60;5.03;;;;;;;10.41;100.00;100138.63;4912341;29;20409;-73
2023/04/23 09:36:49;;;;;;;6.05;4.70;;;;;;;10.40;100.00;100141.47;4913421;29;20066;-73
2023/04/23 09:39:18;;;;;;;6.18;4.25;;;;;;;10.43;100.00;100136.59;4887064;29;20044;-72
2023/04/23 09:41:45;;;;;;;6.82;4.43;;;;;;;10.42;100.00;100140.28;4912577;29;20066;-74
2023/04/23 09:44:16;;;;;;;7.85;5.05;;;;;;;10.49;100.00;100145.78;4913119;29;20047;-71
2023/04/23 09:46:43;;;;;;;6.32;4.47;;;;;;;10.49;100.00;100149.31;4918151;29;20047;-72
2023/04/23 09:49:11;;;;;;;6.03;4.35;;;;;;;10.42;100.00;100148.31;4918471;29;20062;-73
2023/04/23 09:51:39;;;;;;;10.20;5.07;;;;;;;10.41;100.00;100149.34;4918463;29;20084;-74
2023/04/23 09:54:23;;;;;;;7.85;4.88;;;;;;;10.48;100.00;100149.50;4917926;29;20051;-74
2023/04/23 09:56:52;;;;;;;8.55;4.85;;;;;;;10.33;100.00;100144.00;4915183;29;20052;-71
2023/04/23 09:59:20;;;;;;;15.85;7.10;;;;;;;10.30;100.00;100140.81;4919156;29;20461;-72
2023/04/23 10:02:06;;;;;;;6.25;4.32;;;;;;;10.27;100.00;100150.06;4918457;29;20052;-71
2023/04/23 10:04:33;;;;;;;8.57;4.88;;;;;;;10.24;100.00;100150.41;4917521;29;20044;-72
2023/04/23 10:07:03;;;;;;;8.55;5.22;;;;;;;10.27;100.00;100153.59;4917931;29;20044;-72
2023/04/23 10:09:46;;;;;;;8.98;5.20;;;;;;;10.23;100.00;100162.13;4917311;29;20063;-72
2023/04/23 10:12:13;;;;;;;6.63;4.88;;;;;;;10.20;100.00;100165.13;4917260;29;20052;-73
2023/04/23 10:14:44;;;;;;;7.72;5.45;;;;;;;10.28;100.00;100173.19;4915673;29;20052;-72
2023/04/23 10:17:11;;;;;;;7.07;5.10;;;;;;;10.24;100.00;100166.50;4917377;29;20052;-73
2023/04/23 10:19:41;;;;;;;6.55;4.97;;;;;;;10.00;100.00;100173.56;4918463;29;20568;-73
2023/04/23 10:22:10;;;;;;;6.97;4.03;;;;;;;9.90;100.00;100180.13;4913443;29;20056;-73
2023/04/23 10:24:50;;;;;;;11.23;4.72;;;;;;;10.12;100.00;100183.94;4917446;29;20127;-74
2023/04/23 10:27:18;;;;;;;7.72;4.55;;;;;;;10.17;100.00;100170.88;4917617;29;20055;-75
2023/04/23 10:29:48;;;;;;;12.90;6.75;;;;;;;10.46;100.00;100165.75;4916629;29;20511;-73
2023/04/23 10:32:16;;;;;;;13.45;7.75;;;;;;;10.86;100.00;100169.31;4917132;29;20044;-74
2023/04/23 10:34:44;;;;;;;11.05;7.50;;;;;;;11.18;100.00;100164.75;4916575;29;20054;-74
2023/04/23 10:37:11;;;;;;;12.65;7.82;;;;;;;11.36;100.00;100167.16;4916967;29;20050;-73
2023/04/23 10:39:42;;;;;;;13.75;8.30;;;;;;;11.30;100.00;100168.69;4916461;29;20532;-74
2023/04/23 10:42:12;;;;;;;13.77;8.70;;;;;;;11.36;100.00;100170.66;4917447;29;20050;-74
2023/04/23 10:44:41;;;;;;;11.23;8.27;;;;;;;11.37;100.00;100164.25;4916386;29;20300;-73
2023/04/23 10:47:13;;;;;;;17.70;11.13;;;;;;;11.46;100.00;100159.69;4916973;29;20051;-73
2023/04/23 10:49:40;;;;;;;17.63;10.90;;;;;;;11.44;100.00;100169.75;4916694;29;20127;-72
2023/04/23 10:52:13;;;;;;;14.80;10.18;;;;;;;11.74;100.00;100170.72;4914742;29;20044;-73
2023/04/23 10:54:55;;;;;;;14.38;11.10;;;;;;;11.97;100.00;100169.84;4915045;29;20497;-73
2023/04/23 10:57:21;;;;;;;12.65;10.77;;;;;;;11.81;100.00;100182.44;4912176;29;20055;-72
2023/04/23 10:59:55;;;;;;;17.50;11.60;;;;;;;12.02;100.00;100183.59;4914116;29;20059;-73
2023/04/23 11:02:23;;;;;;;18.65;11.00;;;;;;;11.79;100.00;100183.63;4914180;29;20052;-73
2023/04/23 11:04:57;;;;;;;16.05;11.00;;;;;;;11.50;100.00;100174.41;4914744;29;20052;-72
2023/04/23 11:07:34;;;;;;;14.55;11.20;;;;;;;11.95;100.00;100178.09;4915067;29;20054;-72
2023/04/23 11:10:13;;;;;;;17.83;10.65;;;;;;;11.41;100.00;100178.16;4914035;29;20052;-74
2023/04/23 11:12:40;;;;;;;12.85;10.18;;;;;;;11.44;100.00;100183.19;4914954;29;20052;-72
2023/04/23 11:15:12;;;;;;;12.63;10.00;;;;;;;11.43;100.00;100174.31;4914727;29;20055;-72